Time;durP1;ratioP1;P1;durP2;ratioP2;P2;SDS_P1;SDS_P2;PMS_P1;PMS_P2;Temp;Humidity;BMP_temperature;BMP_pressure;BME280_temperature;BME280_humidity;BME280_pressure;Samples;Min_cycle;Max_cycle;Signal;HPM_P1;HPM_P2
2021/06/22 00:02:23;;;;;;;17.20;7.25;;;;;;;17.31;91.15;94247.89;1575873;91;21048;-58
2021/06/22 00:04:49;;;;;;;21.27;8.05;;;;;;;17.32;91.07;94248.02;1575900;91;21184;-58
2021/06/22 00:07:19;;;;;;;22.73;8.05;;;;;;;17.28;90.99;94255.11;1576012;91;21048;-58
2021/06/22 00:09:45;;;;;;;21.62;7.87;;;;;;;17.21;91.46;94252.80;1575637;91;21385;-58
2021/06/22 00:12:13;;;;;;;23.47;8.23;;;;;;;17.22;91.98;94255.09;1575789;91;20997;-55
2021/06/22 00:14:41;;;;;;;19.23;8.40;;;;;;;17.25;92.07;94254.73;1575927;91;20981;-56
2021/06/22 00:17:10;;;;;;;24.75;8.35;;;;;;;17.24;92.08;94244.88;1575908;91;21453;-56
2021/06/22 00:19:37;;;;;;;23.15;7.80;;;;;;;17.23;92.15;94241.31;1575804;91;21104;-56
2021/06/22 00:22:04;;;;;;;20.45;8.20;;;;;;;17.24;92.21;94242.83;1576116;91;21068;-56
2021/06/22 00:24:32;;;;;;;23.07;8.73;;;;;;;17.28;92.14;94239.81;1555285;91;21021;-56
2021/06/22 00:26:58;;;;;;;23.73;8.10;;;;;;;17.31;92.18;94238.81;1576028;91;21543;-56
2021/06/22 00:29:26;;;;;;;19.48;7.97;;;;;;;17.36;92.50;94242.25;1575847;91;21166;-57
2021/06/22 00:31:53;;;;;;;19.70;7.53;;;;;;;17.45;92.37;94226.73;1575789;91;21465;-57
2021/06/22 00:34:19;;;;;;;17.02;7.20;;;;;;;17.51;92.23;94226.10;1575777;91;21009;-57
2021/06/22 00:36:47;;;;;;;16.02;6.92;;;;;;;17.56;91.96;94219.78;1576073;91;21041;-57
2021/06/22 00:39:14;;;;;;;21.05;8.23;;;;;;;17.58;91.83;94222.81;1575934;91;21017;-57
2021/06/22 00:41:41;;;;;;;23.02;8.60;;;;;;;17.60;92.34;94218.89;1576013;91;21113;-57
2021/06/22 00:44:10;;;;;;;17.95;7.62;;;;;;;17.67;92.67;94213.59;1575774;91;21101;-57
2021/06/22 00:46:37;;;;;;;17.25;8.30;;;;;;;17.70;92.30;94209.81;1575792;91;21116;-57
2021/06/22 00:49:04;;;;;;;24.30;8.33;;;;;;;17.68;91.98;94212.97;1576092;91;21573;-57
2021/06/22 00:51:34;;;;;;;24.32;9.35;;;;;;;17.63;92.10;94212.34;1575819;91;21524;-57
2021/06/22 00:54:02;;;;;;;14.10;7.80;;;;;;;17.57;92.11;94213.72;1575966;91;21180;-57
2021/06/22 00:56:32;;;;;;;22.50;8.65;;;;;;;17.53;92.29;94220.80;1575870;91;21038;-57
2021/06/22 00:58:59;;;;;;;17.27;7.65;;;;;;;17.51;92.42;94221.93;1575861;91;21057;-57
2021/06/22 01:01:27;;;;;;;16.55;7.33;;;;;;;17.52;92.56;94223.45;1575987;91;21548;-57
2021/06/22 01:03:54;;;;;;;19.52;7.83;;;;;;;17.54;92.66;94231.43;1575927;91;21037;-57
2021/06/22 01:06:21;;;;;;;20.45;8.38;;;;;;;17.57;92.95;94223.45;1576012;91;21017;-57
2021/06/22 01:08:50;;;;;;;14.55;7.42;;;;;;;17.61;92.75;94224.61;1573858;91;21442;-57
2021/06/22 01:11:18;;;;;;;13.00;6.45;;;;;;;17.61;92.88;94230.92;1576002;91;21061;-57
2021/06/22 01:13:45;;;;;;;15.70;6.42;;;;;;;17.65;92.88;94228.64;1575866;91;21119;-57
2021/06/22 01:16:24;;;;;;;14.70;5.75;;;;;;;17.67;92.68;94228.89;1576251;91;21278;-57
2021/06/22 01:19:01;;;;;;;12.37;6.47;;;;;;;17.68;92.65;94227.62;1576063;91;21180;-57
2021/06/22 01:21:32;;;;;;;16.90;6.25;;;;;;;17.63;92.76;94226.99;1575538;91;21452;-57
2021/06/22 01:24:12;;;;;;;14.05;6.87;;;;;;;17.63;92.89;94225.60;1574698;91;21505;-58
2021/06/22 01:26:47;;;;;;;15.53;7.20;;;;;;;17.63;92.79;94229.77;1576252;91;21072;-58
2021/06/22 01:29:14;;;;;;;20.90;7.92;;;;;;;17.55;92.42;94225.98;1554827;91;21534;-57
2021/06/22 01:31:42;;;;;;;14.65;7.55;;;;;;;17.50;92.69;94234.33;1576185;91;21157;-57
2021/06/22 01:34:09;;;;;;;15.88;7.87;;;;;;;17.45;92.52;94242.03;1575947;91;21600;-57
2021/06/22 01:36:38;;;;;;;12.07;7.20;;;;;;;17.40;92.46;94240.75;1575976;91;21068;-57
2021/06/22 01:39:12;;;;;;;20.37;7.70;;;;;;;17.37;92.83;94243.77;1575923;91;21532;-57
2021/06/22 01:41:39;;;;;;;16.85;7.72;;;;;;;17.41;93.28;94237.33;1576232;91;21024;-57
2021/06/22 01:44:07;;;;;;;13.72;6.22;;;;;;;17.46;93.22;94235.20;1575897;91;21116;-56
2021/06/22 01:46:34;;;;;;;14.60;6.12;;;;;;;17.47;93.21;94232.55;1576139;91;21038;-56
2021/06/22 01:49:02;;;;;;;12.70;5.62;;;;;;;17.52;93.13;94241.53;1575898;91;21013;-56
2021/06/22 01:51:31;;;;;;;12.33;5.85;;;;;;;17.56;92.94;94248.38;1575725;91;21116;-56
2021/06/22 01:54:00;;;;;;;17.27;6.55;;;;;;;17.57;92.68;94243.55;1576000;91;21097;-56
2021/06/22 01:56:28;;;;;;;15.75;8.20;;;;;;;17.59;92.77;94243.80;1576413;91;21561;-57
2021/06/22 01:58:55;;;;;;;15.32;7.22;;;;;;;17.60;92.54;94257.22;1575781;91;21076;-57
2021/06/22 02:01:37;;;;;;;17.17;6.72;;;;;;;17.59;92.34;94254.93;1576172;91;21102;-58
2021/06/22 02:04:06;;;;;;;20.82;6.30;;;;;;;17.55;92.32;94264.16;1575471;91;21555;-57
2021/06/22 02:06:33;;;;;;;14.35;7.00;;;;;;;17.48;92.57;94254.93;1576002;91;21021;-56
2021/06/22 02:09:19;;;;;;;16.50;9.18;;;;;;;17.43;92.39;94252.91;1575994;91;21370;-57
2021/06/22 02:11:47;;;;;;;14.95;7.22;;;;;;;17.37;92.34;94261.84;1575757;91;21533;-57
2021/06/22 02:14:14;;;;;;;10.18;6.80;;;;;;;17.34;92.59;94262.86;1576027;91;21532;-57
2021/06/22 02:16:40;;;;;;;15.72;8.03;;;;;;;17.30;92.24;94272.80;1575939;91;21089;-57
2021/06/22 02:19:08;;;;;;;22.90;7.37;;;;;;;17.26;92.10;94265.98;1575994;91;21069;-57
2021/06/22 02:21:36;;;;;;;19.32;8.70;;;;;;;17.16;92.09;94265.45;1575857;91;21162;-58
2021/06/22 02:24:05;;;;;;;11.73;8.35;;;;;;;17.09;92.65;94259.61;1575790;91;21029;-58
2021/06/22 02:26:32;;;;;;;19.27;7.55;;;;;;;17.04;92.65;94259.71;1576184;91;21001;-58
2021/06/22 02:28:58;;;;;;;20.55;7.45;;;;;;;17.01;92.92;94263.50;1575778;91;21576;-58
2021/06/22 02:31:25;;;;;;;14.73;7.47;;;;;;;16.98;93.00;94258.17;1575944;91;21091;-58
2021/06/22 02:33:53;;;;;;;16.80;7.47;;;;;;;16.98;93.01;94256.77;1575955;91;21203;-57
2021/06/22 02:36:24;;;;;;;13.85;6.87;;;;;;;16.95;92.86;94264.09;1575925;91;21038;-57
2021/06/22 02:38:51;;;;;;;18.40;6.58;;;;;;;16.88;92.79;94268.00;1576049;91;21037;-57
2021/06/22 02:41:19;;;;;;;18.30;5.97;;;;;;;16.81;92.95;94265.05;1575857;91;21513;-57
2021/06/22 02:43:48;;;;;;;53.02;19.87;;;;;;;16.76;92.91;94265.03;1575972;91;21547;-57
2021/06/22 02:46:16;;;;;;;37.03;15.10;;;;;;;16.70;93.03;94272.58;1575857;91;21112;-57
2021/06/22 02:48:44;;;;;;;16.90;9.55;;;;;;;16.66;93.13;94267.88;1575845;91;20993;-58
2021/06/22 02:51:12;;;;;;;11.50;6.47;;;;;;;16.62;93.21;94265.34;1575830;91;21030;-57
2021/06/22 02:53:47;;;;;;;8.10;6.20;;;;;;;16.57;92.95;94253.56;1575845;91;21044;-57
2021/06/22 02:56:15;;;;;;;14.70;5.25;;;;;;;16.52;93.10;94252.91;1555138;91;21662;-57
2021/06/22 02:58:43;;;;;;;15.40;5.42;;;;;;;16.53;93.43;94253.04;1575900;91;21139;-57
2021/06/22 03:01:11;;;;;;;11.22;5.20;;;;;;;16.55;93.39;94250.52;1575724;91;21457;-57
2021/06/22 03:03:39;;;;;;;14.60;6.17;;;;;;;16.58;93.36;94251.55;1575864;91;21092;-58
2021/06/22 03:06:08;;;;;;;22.30;7.83;;;;;;;16.61;93.51;94263.83;1575837;91;21516;-57
2021/06/22 03:08:37;;;;;;;12.73;7.35;;;;;;;16.69;93.44;94264.87;1574200;91;21052;-57
2021/06/22 03:11:05;;;;;;;13.22;8.28;;;;;;;16.77;93.09;94268.68;1575914;91;21152;-54
2021/06/22 03:13:32;;;;;;;22.00;8.45;;;;;;;16.83;93.00;94270.10;1575811;91;20985;-56
2021/06/22 03:16:00;;;;;;;16.52;8.40;;;;;;;16.86;92.66;94276.81;1575952;91;21036;-56
2021/06/22 03:18:28;;;;;;;14.25;7.85;;;;;;;16.87;92.78;94277.59;1575963;91;21036;-56
2021/06/22 03:20:55;;;;;;;15.78;6.87;;;;;;;16.88;93.12;94274.94;1575992;91;21477;-64
2021/06/22 03:23:22;;;;;;;10.72;6.62;;;;;;;16.94;93.23;94279.88;1576052;91;21058;-61
2021/06/22 03:25:50;;;;;;;11.88;6.17;;;;;;;16.97;93.33;94281.66;1575922;91;20994;-62
2021/06/22 03:28:17;;;;;;;10.18;6.58;;;;;;;17.03;93.57;94292.16;1575972;91;21576;-60
2021/06/22 03:30:47;;;;;;;12.88;6.53;;;;;;;17.10;93.57;94288.27;1575814;91;21816;-59
2021/06/22 03:33:14;;;;;;;9.58;5.20;;;;;;;17.16;93.57;94289.08;1575847;91;21049;-59
2021/06/22 03:35:42;;;;;;;12.85;5.65;;;;;;;17.22;93.41;94286.29;1575900;91;21165;-58
2021/06/22 03:38:08;;;;;;;13.65;6.53;;;;;;;17.28;93.09;94288.48;1575867;91;21104;-61
2021/06/22 03:40:36;;;;;;;11.18;5.90;;;;;;;17.30;92.92;94288.73;1555323;91;21099;-59
2021/06/22 03:43:05;;;;;;;10.58;5.58;;;;;;;17.37;93.20;94289.66;1575930;91;21001;-59
2021/06/22 03:45:33;;;;;;;8.65;5.25;;;;;;;17.42;92.51;94294.50;1575979;91;21477;-59
2021/06/22 03:48:00;;;;;;;6.40;4.72;;;;;;;17.42;92.45;94297.28;1575765;91;21513;-60
2021/06/22 03:50:29;;;;;;;9.95;5.55;;;;;;;17.49;92.41;94296.78;1575958;91;21033;-59
2021/06/22 03:52:56;;;;;;;6.22;5.28;;;;;;;17.58;92.33;94304.26;1575793;91;21065;-59
2021/06/22 03:55:26;;;;;;;9.38;6.00;;;;;;;17.67;91.72;94306.79;1576040;91;21044;-59
2021/06/22 03:58:03;;;;;;;8.05;5.67;;;;;;;17.71;91.26;94302.38;1551489;91;21009;-59
2021/06/22 04:00:31;;;;;;;8.20;4.65;;;;;;;17.73;91.22;94303.41;1574935;91;21166;-60
2021/06/22 04:03:00;;;;;;;6.92;4.00;;;;;;;17.80;91.05;94303.55;1575982;91;20990;-61
2021/06/22 04:05:31;;;;;;;8.88;4.62;;;;;;;17.86;90.85;94304.30;1555382;91;21005;-65
2021/06/22 04:08:06;;;;;;;6.00;5.03;;;;;;;17.95;90.72;94301.26;1574259;91;21079;-60
2021/06/22 04:10:34;;;;;;;8.55;4.83;;;;;;;18.08;89.89;94310.66;1575921;91;20993;-63
2021/06/22 04:13:00;;;;;;;6.78;4.62;;;;;;;18.13;89.00;94312.67;1576036;91;21154;-64
2021/06/22 04:15:28;;;;;;;5.33;4.50;;;;;;;18.20;88.49;94316.33;1576046;91;21515;-64
2021/06/22 04:18:05;;;;;;;11.33;5.05;;;;;;;18.17;87.74;94313.17;1555073;91;21008;-58
2021/06/22 04:20:34;;;;;;;12.70;5.95;;;;;;;18.11;87.76;94307.47;1575832;91;21006;-60
2021/06/22 04:23:03;;;;;;;11.43;6.17;;;;;;;18.02;87.88;94306.34;1575851;91;21033;-55
2021/06/22 04:25:30;;;;;;;14.28;6.28;;;;;;;17.95;88.02;94303.42;1575758;91;21169;-55
2021/06/22 04:28:00;;;;;;;17.37;8.98;;;;;;;17.91;88.20;94302.15;1575937;91;21476;-55
2021/06/22 04:30:27;;;;;;;19.35;11.40;;;;;;;17.89;88.36;94310.25;1575771;91;21052;-55
2021/06/22 04:32:56;;;;;;;17.80;9.55;;;;;;;17.91;88.32;94297.97;1575838;91;21096;-55
2021/06/22 04:35:23;;;;;;;25.82;10.32;;;;;;;17.91;88.42;94300.76;1575909;91;21009;-55
2021/06/22 04:37:50;;;;;;;23.90;10.03;;;;;;;17.93;88.33;94310.13;1575901;91;21162;-55
2021/06/22 04:40:17;;;;;;;17.87;8.43;;;;;;;17.94;88.49;94306.08;1575891;91;21120;-56
2021/06/22 04:42:45;;;;;;;21.45;11.57;;;;;;;17.99;88.86;94310.88;1576121;91;21038;-56
2021/06/22 04:45:12;;;;;;;22.93;10.32;;;;;;;18.07;88.81;94307.74;1575904;91;21049;-55
2021/06/22 04:47:39;;;;;;;16.30;8.10;;;;;;;18.12;88.71;94314.56;1575998;91;21056;-55
2021/06/22 04:50:07;;;;;;;16.45;8.00;;;;;;;18.14;88.45;94314.19;1575985;91;21168;-55
2021/06/22 04:52:34;;;;;;;10.95;6.65;;;;;;;18.18;88.34;94318.13;1575919;91;21051;-56
2021/06/22 04:55:11;;;;;;;14.68;6.80;;;;;;;18.26;88.13;94319.25;1576043;91;21076;-56
2021/06/22 04:57:34;;;;;;;14.40;6.90;;;;;;;18.36;87.85;94314.98;1575231;91;21057;-56
2021/06/22 05:00:00;;;;;;;15.95;6.70;;;;;;;18.48;87.34;94317.86;1575974;91;20985;-55
2021/06/22 05:02:27;;;;;;;15.15;6.08;;;;;;;18.58;86.94;94326.72;1575946;91;21541;-55
2021/06/22 05:04:53;;;;;;;10.10;4.97;;;;;;;18.63;86.68;94329.50;1575925;91;20998;-55
2021/06/22 05:07:20;;;;;;;9.88;5.37;;;;;;;18.71;86.37;94326.34;1575855;91;21005;-56
2021/06/22 05:09:47;;;;;;;8.03;5.55;;;;;;;18.76;85.96;94318.59;1575957;91;21085;-56
2021/06/22 05:12:13;;;;;;;7.22;5.50;;;;;;;18.78;85.57;94321.63;1574301;91;22326;-56
2021/06/22 05:14:40;;;;;;;13.15;5.75;;;;;;;18.78;85.20;94312.48;1575691;91;21108;-54
2021/06/22 05:17:07;;;;;;;7.80;5.12;;;;;;;18.81;84.91;94320.59;1575096;90;21073;-56
2021/06/22 05:19:34;;;;;;;7.78;5.00;;;;;;;18.88;84.30;94321.48;1579132;90;21045;-55
2021/06/22 05:22:02;;;;;;;8.25;5.03;;;;;;;18.96;83.91;94322.47;1577525;90;21625;-56
2021/06/22 05:24:29;;;;;;;12.07;6.65;;;;;;;19.01;83.60;94318.16;1576988;91;21105;-56
2021/06/22 05:26:55;;;;;;;9.55;4.95;;;;;;;19.07;83.27;94316.87;1580851;90;22380;-57
2021/06/22 05:29:22;;;;;;;10.13;4.30;;;;;;;19.16;82.97;94309.63;1581814;89;21629;-55
2021/06/22 05:31:48;;;;;;;12.05;4.70;;;;;;;19.25;82.91;94305.17;1581956;90;21041;-55
2021/06/22 05:34:15;;;;;;;6.97;4.87;;;;;;;19.39;82.44;94301.93;1581901;90;21129;-56
2021/06/22 05:36:42;;;;;;;10.55;5.05;;;;;;;19.51;81.83;94304.14;1581315;90;21100;-55
2021/06/22 05:39:08;;;;;;;10.23;5.83;;;;;;;19.57;81.54;94306.27;1578072;90;21115;-56
2021/06/22 05:41:36;;;;;;;10.20;4.97;;;;;;;19.66;81.33;94308.76;1570540;90;21066;-56
2021/06/22 05:44:04;;;;;;;30.85;22.50;;;;;;;19.78;81.12;94300.42;1551388;91;21055;-55
2021/06/22 05:46:32;;;;;;;7.33;5.25;;;;;;;19.87;81.02;94298.73;1568040;90;21350;-55
2021/06/22 05:49:00;;;;;;;8.10;4.75;;;;;;;19.99;80.33;94302.20;1613087;87;21134;-55
2021/06/22 05:51:27;;;;;;;15.53;5.47;;;;;;;20.07;79.70;94299.76;1602206;87;21298;-57
2021/06/22 05:53:55;;;;;;;10.85;4.30;;;;;;;20.16;79.44;94294.61;1606851;86;20984;-57
2021/06/22 05:56:22;;;;;;;9.58;4.35;;;;;;;20.30;79.13;94296.27;1616795;86;21086;-56
2021/06/22 05:58:49;;;;;;;9.90;4.28;;;;;;;20.44;78.33;94297.94;1620325;85;21102;-62
2021/06/22 06:01:18;;;;;;;8.00;4.05;;;;;;;20.58;77.59;94291.84;1618664;86;21141;-64
2021/06/22 06:03:46;;;;;;;11.75;4.60;;;;;;;20.67;77.18;94280.30;1621486;85;21158;-59
2021/06/22 06:06:14;;;;;;;9.58;4.50;;;;;;;20.77;76.97;94289.87;1617696;87;21206;-61
2021/06/22 06:08:42;;;;;;;5.70;3.77;;;;;;;20.86;76.37;94285.34;1636104;85;21674;-57
2021/06/22 06:11:11;;;;;;;7.78;4.58;;;;;;;20.92;76.07;94282.60;1608780;86;21088;-56
2021/06/22 06:13:38;;;;;;;5.22;4.08;;;;;;;21.01;75.68;94276.67;1611697;85;21206;-59
2021/06/22 06:16:06;;;;;;;4.15;3.60;;;;;;;21.11;75.12;94285.46;1608042;87;21292;-56
2021/06/22 06:18:33;;;;;;;9.30;4.05;;;;;;;21.17;74.71;94281.95;1600847;87;21036;-58
2021/06/22 06:21:00;;;;;;;13.83;5.10;;;;;;;21.24;74.58;94284.14;1621028;86;21069;-57
2021/06/22 06:23:31;;;;;;;7.97;3.87;;;;;;;21.34;74.85;94283.27;1620203;86;21027;-60
2021/06/22 06:25:56;;;;;;;12.25;5.62;;;;;;;21.49;74.51;94273.77;1616109;86;21124;-60
2021/06/22 06:28:29;;;;;;;9.53;4.67;;;;;;;21.65;74.21;94279.81;1588027;87;21141;-60
2021/06/22 06:30:53;;;;;;;12.13;4.83;;;;;;;21.80;74.11;94270.98;1621781;87;21097;-57
2021/06/22 06:33:22;;;;;;;11.15;3.87;;;;;;;21.93;73.36;94273.82;1611116;87;33521;-59
2021/06/22 06:35:48;;;;;;;10.25;4.40;;;;;;;22.03;72.71;94273.66;1613762;87;21046;-58
2021/06/22 06:38:15;;;;;;;10.40;4.33;;;;;;;22.13;72.83;94275.42;1614824;87;21951;-59
2021/06/22 06:40:43;;;;;;;5.65;4.50;;;;;;;22.26;72.24;94274.82;1616668;87;21163;-55
2021/06/22 06:43:11;;;;;;;10.93;5.05;;;;;;;22.38;72.07;94270.58;1590458;88;21133;-56
2021/06/22 06:45:40;;;;;;;8.05;4.25;;;;;;;22.52;72.65;94276.97;1610107;86;21078;-58
2021/06/22 06:48:09;;;;;;;8.15;4.25;;;;;;;22.62;71.31;94272.48;1619282;86;21142;-55
2021/06/22 06:50:36;;;;;;;18.98;5.30;;;;;;;22.68;71.01;94274.53;1625879;87;21011;-59
2021/06/22 06:53:07;;;;;;;10.57;4.83;;;;;;;22.73;71.01;94282.85;1614429;87;21105;-57
2021/06/22 06:55:40;;;;;;;10.15;4.70;;;;;;;22.81;71.28;94294.94;1611530;87;21204;-56
2021/06/22 06:58:10;;;;;;;15.88;6.08;;;;;;;22.92;71.22;94296.15;1564344;88;21133;-56
2021/06/22 07:00:45;;;;;;;14.93;5.97;;;;;;;23.06;70.96;94296.91;1590144;88;21016;-56
2021/06/22 07:03:13;;;;;;;10.95;4.53;;;;;;;23.23;70.81;94295.30;1589302;88;21034;-58
2021/06/22 07:05:46;;;;;;;20.30;5.42;;;;;;;23.36;69.79;94284.08;1584451;87;21212;-55
2021/06/22 07:08:15;;;;;;;19.45;7.90;;;;;;;23.51;69.41;94284.92;1616364;86;21022;-60
2021/06/22 07:10:44;;;;;;;14.20;5.30;;;;;;;23.65;69.05;94275.95;1569967;88;21039;-58
2021/06/22 07:13:16;;;;;;;7.12;4.20;;;;;;;23.78;68.87;94277.30;1584161;87;21127;-57
2021/06/22 07:15:49;;;;;;;21.70;5.58;;;;;;;23.92;68.41;94272.45;1616469;87;21168;-59
2021/06/22 07:18:16;;;;;;;5.80;3.37;;;;;;;24.05;68.15;94275.97;1635063;86;21160;-58
2021/06/22 07:20:43;;;;;;;9.80;4.00;;;;;;;24.15;67.67;94274.19;1617755;86;21154;-55
2021/06/22 07:23:10;;;;;;;7.42;3.45;;;;;;;24.29;67.76;94281.27;1604623;86;21082;-54
2021/06/22 07:25:42;;;;;;;9.05;4.17;;;;;;;24.40;65.78;94281.02;1612156;87;21094;-60
2021/06/22 07:28:09;;;;;;;8.70;3.75;;;;;;;24.47;64.86;94277.52;1596616;88;21066;-59
2021/06/22 07:30:35;;;;;;;9.43;3.60;;;;;;;24.56;63.28;94282.70;1620247;87;21153;-62
2021/06/22 07:33:02;;;;;;;6.40;3.52;;;;;;;24.65;62.71;94272.36;1606041;87;21096;-56
2021/06/22 07:35:32;;;;;;;24.23;4.78;;;;;;;24.73;61.76;94274.59;1614810;87;21199;-61
2021/06/22 07:37:58;;;;;;;10.35;3.60;;;;;;;24.76;60.31;94272.08;1611374;87;21076;-62
2021/06/22 07:40:25;;;;;;;12.78;3.75;;;;;;;24.82;59.19;94268.47;1619990;86;21077;-60
2021/06/22 07:42:53;;;;;;;7.53;3.70;;;;;;;24.87;59.62;94266.15;1615397;85;21136;-60
2021/06/22 07:45:21;;;;;;;8.15;3.05;;;;;;;24.91;58.65;94266.58;1628228;86;21010;-65
2021/06/22 07:47:49;;;;;;;5.78;4.03;;;;;;;24.96;58.54;94261.45;1616395;86;21099;-61
2021/06/22 07:50:16;;;;;;;6.70;3.70;;;;;;;25.03;57.94;94266.36;1611761;87;21144;-63
2021/06/22 07:52:43;;;;;;;5.47;2.90;;;;;;;25.11;58.10;94261.55;1622842;85;21133;-62
2021/06/22 07:55:14;;;;;;;12.53;5.00;;;;;;;25.21;57.53;94263.98;1613973;86;21561;-58
2021/06/22 07:57:46;;;;;;;9.25;3.58;;;;;;;25.33;57.41;94256.73;1635323;85;21158;-61
2021/06/22 08:00:38;;;;;;;7.03;3.20;;;;;;;25.46;57.56;94265.08;1611655;87;21125;-63
2021/06/22 08:03:04;;;;;;;7.35;3.75;;;;;;;25.56;57.59;94259.00;1603789;87;21060;-62
2021/06/22 08:05:32;;;;;;;8.53;3.37;;;;;;;25.70;57.93;94258.98;1613963;87;21129;-65
2021/06/22 08:07:59;;;;;;;12.75;3.77;;;;;;;25.85;59.34;94253.44;1614072;86;23139;-62
2021/06/22 08:10:26;;;;;;;8.10;3.83;;;;;;;25.96;58.83;94258.08;1596901;86;21880;-62
2021/06/22 08:12:53;;;;;;;16.80;4.40;;;;;;;26.11;60.04;94260.95;1622613;86;21157;-59
2021/06/22 08:15:20;;;;;;;7.65;3.75;;;;;;;26.24;58.31;94255.89;1600442;87;21146;-60
2021/06/22 08:17:47;;;;;;;7.22;4.00;;;;;;;26.38;58.03;94264.30;1615688;87;21092;-55
2021/06/22 08:20:15;;;;;;;7.95;3.60;;;;;;;26.50;57.23;94255.58;1616861;87;21384;-60
2021/06/22 08:22:42;;;;;;;7.05;4.03;;;;;;;26.65;56.07;94252.04;1592177;88;21075;-59
2021/06/22 08:25:11;;;;;;;13.22;5.50;;;;;;;26.76;54.84;94253.83;1574409;89;21175;-59
2021/06/22 08:27:37;;;;;;;7.03;3.85;;;;;;;26.87;54.63;94250.60;1572839;89;21038;-59
2021/06/22 08:30:06;;;;;;;10.25;3.47;;;;;;;26.99;54.99;94257.38;1601692;88;21082;-57
2021/06/22 08:32:33;;;;;;;9.43;2.75;;;;;;;27.12;54.36;94251.57;1594163;89;22550;-56
2021/06/22 08:35:01;;;;;;;4.35;2.52;;;;;;;27.24;50.74;94258.31;1620388;87;21022;-63
2021/06/22 08:37:28;;;;;;;14.33;3.60;;;;;;;27.35;50.85;94252.28;1617513;86;21832;-64
2021/06/22 08:39:55;;;;;;;7.55;3.15;;;;;;;27.44;50.64;94260.15;1610869;86;21044;-53
2021/06/22 08:42:23;;;;;;;9.50;3.33;;;;;;;27.55;51.47;94256.93;1618057;86;21624;-59
2021/06/22 08:44:51;;;;;;;6.95;2.67;;;;;;;27.62;51.98;94258.23;1643541;86;21180;-55
2021/06/22 08:47:23;;;;;;;6.08;3.10;;;;;;;27.69;51.95;94254.62;1605304;87;21650;-61
2021/06/22 08:49:52;;;;;;;5.20;2.50;;;;;;;27.71;52.69;94252.77;1602183;88;21224;-54
2021/06/22 08:52:30;;;;;;;8.40;3.17;;;;;;;27.79;51.65;94247.82;1625383;86;21058;-58
2021/06/22 08:54:59;;;;;;;6.65;3.70;;;;;;;27.89;52.48;94250.89;1589156;87;21097;-57
2021/06/22 08:57:26;;;;;;;7.42;3.00;;;;;;;27.98;52.27;94252.36;1630002;87;21853;-59
2021/06/22 08:59:54;;;;;;;5.58;2.58;;;;;;;28.08;52.88;94246.19;1626280;86;21579;-57
2021/06/22 09:02:27;;;;;;;6.67;3.22;;;;;;;28.15;52.06;94251.05;1592637;88;21181;-58
2021/06/22 09:04:56;;;;;;;6.37;3.12;;;;;;;28.20;51.85;94243.02;1614034;86;21152;-56
2021/06/22 09:07:50;;;;;;;8.83;3.27;;;;;;;28.27;49.87;94249.29;1603579;87;21070;-63
2021/06/22 09:10:27;;;;;;;8.40;2.90;;;;;;;28.35;50.48;94250.02;1612197;86;21951;-60
2021/06/22 09:12:54;;;;;;;7.03;2.58;;;;;;;28.43;49.95;94249.32;1596064;87;21100;-56
2021/06/22 09:15:29;;;;;;;5.58;2.50;;;;;;;28.51;50.04;94252.19;1618276;86;21145;-57
2021/06/22 09:17:57;;;;;;;6.50;2.45;;;;;;;28.61;49.44;94255.14;1588896;88;21082;-57
2021/06/22 09:20:42;;;;;;;9.20;2.35;;;;;;;28.66;49.23;94249.26;1588593;88;21107;-57
2021/06/22 09:23:25;;;;;;;4.40;2.12;;;;;;;28.72;48.96;94254.67;1616155;87;21129;-58
2021/06/22 09:25:55;;;;;;;6.62;2.87;;;;;;;28.76;47.80;94262.12;1600246;86;21037;-55
2021/06/22 09:28:24;;;;;;;5.75;2.87;;;;;;;28.80;47.62;94256.11;1557700;89;21131;-60
2021/06/22 09:30:58;;;;;;;12.28;7.70;;;;;;;28.88;47.59;94260.30;1572393;88;21155;-57
2021/06/22 09:33:37;;;;;;;6.37;2.67;;;;;;;28.98;47.37;94259.79;1584877;89;21229;-61
2021/06/22 09:36:27;;;;;;;7.33;2.52;;;;;;;29.05;47.11;94263.22;1588761;89;21196;-58
2021/06/22 09:38:57;;;;;;;7.00;2.67;;;;;;;29.05;46.39;94260.38;1572224;88;21103;-52
2021/06/22 09:41:40;;;;;;;7.65;2.65;;;;;;;28.90;45.07;94271.83;1605477;88;21209;-63
2021/06/22 09:44:13;;;;;;;10.03;3.45;;;;;;;28.75;45.70;94262.03;1575320;88;21684;-58
2021/06/22 09:46:46;;;;;;;8.55;3.00;;;;;;;28.73;46.64;94261.19;1614116;86;21055;-54
2021/06/22 09:49:24;;;;;;;8.73;3.47;;;;;;;28.83;48.22;94266.31;1609198;86;22675;-63
2021/06/22 09:51:58;;;;;;;8.20;2.50;;;;;;;28.93;47.15;94262.20;1617373;86;21100;-59
2021/06/22 09:54:31;;;;;;;8.43;3.37;;;;;;;29.02;47.16;94257.30;1605126;86;21110;-65
2021/06/22 09:57:08;;;;;;;6.80;2.80;;;;;;;29.09;46.03;94258.65;1628244;86;21164;-57
2021/06/22 09:59:52;;;;;;;8.45;2.85;;;;;;;29.15;45.45;94251.33;1620474;86;21139;-60
2021/06/22 10:02:24;;;;;;;4.25;2.50;;;;;;;29.29;44.88;94261.03;1600647;86;21892;-60
2021/06/22 10:04:56;;;;;;;6.78;2.40;;;;;;;29.41;47.59;94257.77;1616036;87;21076;-56
2021/06/22 10:07:24;;;;;;;8.05;2.58;;;;;;;29.51;46.87;94250.16;1619135;86;21174;-65
2021/06/22 10:09:56;;;;;;;4.78;2.40;;;;;;;29.54;45.14;94249.72;1628060;87;21027;-58
2021/06/22 10:12:24;;;;;;;;;;;;;;;29.63;44.13;94245.47;1621648;87;20989;-59
2021/06/22 10:14:53;;;;;;;4.78;2.55;;;;;;;29.64;43.33;94244.89;1602764;87;21172;-61
2021/06/22 10:17:24;;;;;;;4.78;2.83;;;;;;;29.65;47.03;94237.89;1614307;87;21108;-57
2021/06/22 10:19:56;;;;;;;7.33;2.98;;;;;;;29.71;47.12;94239.05;1605549;87;21109;-57
2021/06/22 10:22:26;;;;;;;20.05;3.15;;;;;;;29.79;47.63;94239.70;1612794;87;21030;-57
2021/06/22 10:24:57;;;;;;;6.30;2.98;;;;;;;29.88;45.02;94240.55;1635031;87;21215;-57
2021/06/22 10:27:24;;;;;;;10.68;2.75;;;;;;;29.97;47.92;94237.02;1604555;87;21174;-54
2021/06/22 10:29:53;;;;;;;6.62;2.45;;;;;;;30.08;47.75;94232.94;1605077;86;21704;-57
2021/06/22 10:32:21;;;;;;;6.42;2.58;;;;;;;30.19;47.74;94226.73;1591132;87;22617;-58
2021/06/22 10:34:53;;;;;;;6.87;2.50;;;;;;;30.31;45.03;94228.45;1599446;87;21061;-59
2021/06/22 10:37:30;;;;;;;2.70;2.05;;;;;;;30.40;43.31;94232.03;1602270;88;21642;-56
2021/06/22 10:40:21;;;;;;;6.00;2.98;;;;;;;30.52;46.19;94230.13;1618973;87;22342;-57
2021/06/22 10:42:51;;;;;;;3.52;2.58;;;;;;;30.73;45.25;94230.43;1616797;87;21136;-60
2021/06/22 10:45:18;;;;;;;7.97;3.15;;;;;;;31.01;43.86;94229.03;1594723;87;21537;-57
2021/06/22 10:47:46;;;;;;;5.42;2.50;;;;;;;31.23;43.90;94228.65;1586413;88;21117;-59
2021/06/22 10:50:29;;;;;;;7.50;2.62;;;;;;;31.50;43.68;94232.16;1617123;87;21090;-61
2021/06/22 10:53:08;;;;;;;3.98;2.37;;;;;;;31.75;41.82;94222.68;1610436;87;21145;-59
2021/06/22 10:55:47;;;;;;;9.35;2.80;;;;;;;32.02;41.73;94226.13;1623125;87;21035;-59
2021/06/22 10:58:17;;;;;;;8.45;2.50;;;;;;;32.21;42.79;94224.02;1621232;87;21050;-60
2021/06/22 11:00:49;;;;;;;5.65;2.47;;;;;;;32.35;40.95;94225.05;1620339;87;21049;-58
2021/06/22 11:03:33;;;;;;;4.25;2.20;;;;;;;32.48;40.16;94220.96;1596348;88;21063;-64
2021/06/22 11:06:16;;;;;;;11.97;2.75;;;;;;;32.61;38.14;94219.05;1604599;87;21754;-58
2021/06/22 11:08:45;;;;;;;5.53;2.47;;;;;;;32.65;38.00;94216.48;1592945;88;21156;-61
2021/06/22 11:11:16;;;;;;;12.05;3.10;;;;;;;32.71;37.93;94213.42;1596034;87;21072;-55
2021/06/22 11:13:53;;;;;;;7.17;2.60;;;;;;;32.83;38.09;94217.13;1620928;87;21072;-62
2021/06/22 11:16:25;;;;;;;4.35;2.15;;;;;;;33.00;38.80;94211.88;1604998;87;21532;-61
2021/06/22 11:19:04;;;;;;;5.62;2.30;;;;;;;33.26;38.87;94213.03;1591324;87;21353;-62
2021/06/22 11:21:40;;;;;;;4.10;2.62;;;;;;;33.48;38.71;94208.09;1626372;87;21577;-58
2021/06/22 11:24:28;;;;;;;6.97;2.77;;;;;;;33.68;39.27;94204.47;1628422;86;21083;-57
2021/06/22 11:27:00;;;;;;;5.17;2.37;;;;;;;33.87;38.95;94192.20;1618749;86;21059;-58
2021/06/22 11:29:40;;;;;;;;;;;;;;;34.07;38.51;94197.86;1636022;86;21034;-56
2021/06/22 11:32:06;;;;;;;7.22;2.17;;;;;;;34.28;39.40;94208.50;1582269;89;21160;-59
2021/06/22 11:34:35;;;;;;;7.55;2.12;;;;;;;34.54;36.58;94197.34;1602283;88;22013;-61
2021/06/22 11:37:11;;;;;;;8.58;2.52;;;;;;;34.81;37.63;94198.39;1573753;86;21053;-58
2021/06/22 11:39:40;;;;;;;7.20;2.50;;;;;;;35.14;36.92;94197.59;1622158;86;21047;-59
2021/06/22 11:42:14;;;;;;;11.28;2.80;;;;;;;35.54;36.50;94190.03;1620381;86;21097;-57